createdAt,value
2018-06-10T00:01:26.254Z,11.10
2018-06-10T00:03:54.607Z,10.32
2018-06-10T00:06:22.977Z,11.60
2018-06-10T00:08:51.362Z,9.68
2018-06-10T00:11:19.725Z,13.48
2018-06-10T00:13:48.056Z,13.13
2018-06-10T00:16:16.410Z,13.18
2018-06-10T00:18:44.719Z,10.48
2018-06-10T00:21:19.753Z,11.45
2018-06-10T00:23:48.251Z,10.82
2018-06-10T00:26:16.661Z,9.95
2018-06-10T00:28:50.312Z,10.18
2018-06-10T00:31:18.653Z,10.03
2018-06-10T00:33:47.008Z,11.25
2018-06-10T00:36:15.337Z,10.10
2018-06-10T00:38:43.674Z,10.75
2018-06-10T00:41:12.036Z,10.65
2018-06-10T00:43:40.354Z,8.98
2018-06-10T00:46:08.791Z,11.78
2018-06-10T00:48:37.123Z,9.30
2018-06-10T00:51:05.492Z,9.23
2018-06-10T00:53:33.541Z,11.68
2018-06-10T00:56:12.151Z,10.98
2018-06-10T00:58:40.524Z,12.53
2018-06-10T01:01:09.082Z,11.15
2018-06-10T01:03:37.400Z,11.53
2018-06-10T01:06:05.752Z,10.70
2018-06-10T01:08:34.100Z,12.37
2018-06-10T01:11:03.256Z,13.62
2018-06-10T01:13:31.817Z,10.78
2018-06-10T01:16:00.275Z,14.90
2018-06-10T01:18:28.603Z,13.50
2018-06-10T01:20:57.382Z,13.60
2018-06-10T01:23:26.954Z,14.75
2018-06-10T01:25:55.332Z,13.43
2018-06-10T01:28:23.747Z,11.80
2018-06-10T01:30:52.071Z,13.35
2018-06-10T01:33:20.463Z,12.75
2018-06-10T01:35:50.639Z,10.10
2018-06-10T01:38:19.052Z,10.35
2018-06-10T01:40:48.774Z,10.03
2018-06-10T01:43:17.115Z,10.32
2018-06-10T01:45:45.755Z,11.33
2018-06-10T01:48:14.115Z,13.75
2018-06-10T01:50:42.431Z,12.45
2018-06-10T01:53:10.810Z,16.00
2018-06-10T01:55:39.143Z,15.03
2018-06-10T01:58:07.551Z,13.25
2018-06-10T02:00:35.874Z,14.47
2018-06-10T02:03:04.281Z,14.60
2018-06-10T02:05:33.617Z,15.30
2018-06-10T02:08:02.796Z,16.75
2018-06-10T02:10:32.023Z,17.30
2018-06-10T02:13:00.759Z,17.40
2018-06-10T02:15:29.089Z,18.07
2018-06-10T02:17:58.196Z,15.75
2018-06-10T02:20:26.522Z,15.32
2018-06-10T02:22:56.062Z,16.52
2018-06-10T02:25:25.300Z,16.15
2018-06-10T02:27:53.727Z,13.75
2018-06-10T02:30:28.677Z,15.53
2018-06-10T02:32:57.789Z,14.60
2018-06-10T02:35:26.308Z,14.50
2018-06-10T03:55:26.093Z,17.42
2018-06-10T03:57:54.469Z,17.73
2018-06-10T04:00:22.637Z,17.60
2018-06-10T04:02:50.796Z,18.60
2018-06-10T04:05:19.231Z,17.37
2018-06-10T04:07:47.619Z,20.15
2018-06-10T04:10:15.993Z,19.23
2018-06-10T04:12:44.476Z,19.52
2018-06-10T04:15:12.862Z,19.05
2018-06-10T04:17:41.301Z,18.82
2018-06-10T04:20:09.710Z,17.48
2018-06-10T04:22:38.174Z,17.80
2018-06-10T04:25:06.545Z,19.65
2018-06-10T04:27:41.522Z,19.02
2018-06-10T04:30:09.920Z,17.65
2018-06-10T04:32:38.319Z,17.82
2018-06-10T04:35:06.699Z,17.25
2018-06-10T04:37:35.080Z,18.60
2018-06-10T04:40:03.481Z,19.12
2018-06-10T04:42:31.873Z,18.90
2018-06-10T04:45:01.030Z,17.92
2018-06-10T04:47:29.456Z,16.15
2018-06-10T04:49:58.120Z,17.95
2018-06-10T04:52:26.580Z,15.32
2018-06-10T04:54:54.964Z,16.65
2018-06-10T04:57:23.335Z,15.28
2018-06-10T04:59:51.731Z,17.42
2018-06-10T05:02:20.213Z,14.28
2018-06-10T05:04:48.622Z,17.05
2018-06-10T05:07:17.021Z,18.30
2018-06-10T05:09:45.456Z,16.30
2018-06-10T05:12:13.846Z,18.02
2018-06-10T05:14:42.240Z,15.63
2018-06-10T05:17:10.683Z,16.00
2018-06-10T05:19:39.185Z,14.70
2018-06-10T05:22:07.571Z,13.40
2018-06-10T05:24:35.943Z,15.08
2018-06-10T05:27:04.339Z,12.28
2018-06-10T05:29:32.786Z,14.95
2018-06-10T05:32:01.142Z,13.38
2018-06-10T05:34:29.548Z,14.00
2018-06-10T05:39:32.461Z,14.10
2018-06-10T05:42:00.862Z,13.95
2018-06-10T05:44:29.266Z,13.55
2018-06-10T05:46:57.680Z,13.55
2018-06-10T05:49:26.040Z,11.33
2018-06-10T05:51:54.438Z,13.35
2018-06-10T05:54:22.797Z,13.30
2018-06-10T05:56:51.244Z,12.95
2018-06-10T05:59:19.669Z,13.70
2018-06-10T06:01:48.092Z,14.30
2018-06-10T06:04:16.481Z,13.65
2018-06-10T06:06:44.896Z,13.65
2018-06-10T06:09:13.321Z,12.68
2018-06-10T06:11:41.732Z,12.15
2018-06-10T06:14:10.532Z,10.80
2018-06-10T06:16:38.931Z,12.03
2018-06-10T06:19:07.721Z,12.50
2018-06-10T06:21:36.076Z,11.45
2018-06-10T06:24:04.444Z,11.57
2018-06-10T06:26:32.838Z,11.00
2018-06-10T06:29:01.252Z,11.12
2018-06-10T06:31:29.617Z,11.50
2018-06-10T06:33:58.074Z,10.55
2018-06-10T06:36:26.466Z,10.90
2018-06-10T06:38:54.854Z,9.80
2018-06-10T06:41:23.222Z,10.65
2018-06-10T06:43:51.591Z,10.15
2018-06-10T06:46:20.050Z,10.40
2018-06-10T06:48:48.422Z,11.25
2018-06-10T06:51:16.832Z,9.33
2018-06-10T06:53:45.237Z,9.50
2018-06-10T06:56:13.655Z,9.68
2018-06-10T06:58:42.074Z,10.78
2018-06-10T07:01:10.445Z,9.60
2018-06-10T07:03:38.818Z,10.45
2018-06-10T07:06:07.194Z,10.23
2018-06-10T07:08:35.547Z,9.85
2018-06-10T07:11:03.949Z,10.58
2018-06-10T07:13:32.318Z,9.88
2018-06-10T07:16:00.725Z,9.43
2018-06-10T07:18:29.125Z,9.38
2018-06-10T07:20:57.510Z,8.80
2018-06-10T07:23:26.052Z,9.20
2018-06-10T07:25:54.536Z,9.33
2018-06-10T07:28:22.996Z,8.95
2018-06-10T07:30:51.443Z,8.00
2018-06-10T07:33:19.864Z,8.13
2018-06-10T07:35:48.262Z,8.10
2018-06-10T07:38:16.668Z,7.03
2018-06-10T07:40:45.044Z,7.62
2018-06-10T07:43:13.486Z,6.95
2018-06-10T07:45:41.819Z,7.08
2018-06-10T07:48:10.195Z,6.80
2018-06-10T07:50:38.558Z,7.78
2018-06-10T07:53:07.159Z,7.03
2018-06-10T07:55:35.633Z,7.25
2018-06-10T07:58:04.238Z,6.75
2018-06-10T08:00:32.595Z,6.65
2018-06-10T08:03:01.966Z,6.40
2018-06-10T08:05:30.489Z,7.05
2018-06-10T08:07:58.831Z,7.00
2018-06-10T08:10:27.184Z,6.60
2018-06-10T08:12:55.541Z,7.15
2018-06-10T08:15:23.880Z,7.10
2018-06-10T08:17:52.307Z,6.50
2018-06-10T08:20:20.711Z,6.95
2018-06-10T08:22:49.119Z,6.72
2018-06-10T08:25:17.555Z,6.15
2018-06-10T08:27:45.916Z,6.90
2018-06-10T08:30:14.418Z,6.75
2018-06-10T08:32:42.983Z,6.50
2018-06-10T08:35:11.334Z,6.92
2018-06-10T08:37:39.702Z,6.78
2018-06-10T08:40:08.076Z,6.33
2018-06-10T08:42:36.449Z,6.70
2018-06-10T08:45:05.285Z,6.47
2018-06-10T08:47:33.648Z,6.70
2018-06-10T08:50:02.033Z,6.83
2018-06-10T08:52:30.452Z,7.55
2018-06-10T08:54:58.856Z,6.95
2018-06-10T08:57:27.218Z,6.53
2018-06-10T08:59:55.608Z,7.75
2018-06-10T09:02:24.022Z,6.90
2018-06-10T09:04:52.465Z,6.72
2018-06-10T09:07:22.337Z,7.05
2018-06-10T09:09:50.751Z,7.47
2018-06-10T09:12:19.240Z,7.47
2018-06-10T09:14:47.813Z,7.60
2018-06-10T09:17:16.237Z,7.90
2018-06-10T09:19:44.705Z,8.13
2018-06-10T09:22:13.284Z,7.67
2018-06-10T09:24:41.859Z,8.18
2018-06-10T09:27:10.337Z,7.50
2018-06-10T09:29:38.760Z,8.30
2018-06-10T09:32:07.197Z,7.78
2018-06-10T09:34:35.696Z,8.50
2018-06-10T09:37:04.161Z,7.55
2018-06-10T09:39:32.564Z,7.40
2018-06-10T09:42:00.997Z,7.80
2018-06-10T09:44:29.499Z,8.88
2018-06-10T09:46:57.948Z,8.60
2018-06-10T09:49:26.402Z,7.55
2018-06-10T09:51:54.800Z,6.90
2018-06-10T09:54:23.246Z,8.05
2018-06-10T09:56:51.718Z,8.43
2018-06-10T09:59:20.263Z,7.85
2018-06-10T10:01:48.623Z,7.60
2018-06-10T10:04:17.035Z,7.95
2018-06-10T10:06:45.378Z,8.20
2018-06-10T10:09:13.805Z,8.43
2018-06-10T10:11:42.160Z,8.35
2018-06-10T10:14:10.519Z,8.75
2018-06-10T10:16:39.147Z,8.83
2018-06-10T10:19:07.577Z,9.33
2018-06-10T10:21:35.970Z,8.33
2018-06-10T10:24:04.354Z,8.25
2018-06-10T10:26:32.763Z,8.85
2018-06-10T10:29:01.112Z,8.25
2018-06-10T10:31:29.526Z,8.93
2018-06-10T10:33:57.926Z,9.08
2018-06-10T10:36:26.328Z,8.98
2018-06-10T10:38:54.713Z,9.25
2018-06-10T10:41:23.234Z,9.23
2018-06-10T10:43:51.698Z,8.85
2018-06-10T10:46:19.956Z,9.48
2018-06-10T10:48:48.410Z,9.28
2018-06-10T10:51:16.877Z,8.93
2018-06-10T10:53:45.335Z,9.45
2018-06-10T10:56:13.551Z,8.10
2018-06-10T10:58:42.139Z,8.65
2018-06-10T11:01:10.566Z,9.45
2018-06-10T11:03:39.033Z,10.25
2018-06-10T11:06:07.666Z,9.73
2018-06-10T11:08:36.080Z,9.58
2018-06-10T11:11:04.595Z,7.97
2018-06-10T11:13:33.095Z,8.85
2018-06-10T11:16:01.574Z,9.80
2018-06-10T11:18:30.040Z,8.60
2018-06-10T11:20:58.472Z,8.48
2018-06-10T11:23:26.880Z,7.92
2018-06-10T11:25:55.308Z,7.62
2018-06-10T11:30:58.328Z,7.97
2018-06-10T11:33:26.836Z,7.78
2018-06-10T11:35:55.292Z,6.70
2018-06-10T11:38:23.715Z,6.75
2018-06-10T11:40:52.282Z,6.30
2018-06-10T11:43:20.717Z,6.97
2018-06-10T11:45:49.222Z,6.17
2018-06-10T11:48:17.695Z,5.53
2018-06-10T11:50:46.069Z,4.95
2018-06-10T11:53:14.471Z,5.75
2018-06-10T11:55:42.847Z,5.25
2018-06-10T11:58:11.304Z,5.47
2018-06-10T12:00:39.743Z,5.95
2018-06-10T12:03:08.175Z,5.65
2018-06-10T12:05:36.688Z,6.07
2018-06-10T12:08:05.200Z,5.90
2018-06-10T12:10:33.762Z,6.30
2018-06-10T12:13:02.338Z,6.28
2018-06-10T12:15:30.756Z,6.35
2018-06-10T12:17:59.267Z,7.00
2018-06-10T12:20:27.695Z,6.85
2018-06-10T12:22:56.120Z,5.80
2018-06-10T12:25:24.565Z,6.70
2018-06-10T12:27:53.063Z,7.03
2018-06-10T12:30:21.569Z,6.47
2018-06-10T12:32:50.116Z,7.10
2018-06-10T12:35:18.683Z,7.60
2018-06-10T12:37:47.097Z,6.47
2018-06-10T12:40:15.583Z,6.70
2018-06-10T12:42:43.951Z,6.97
2018-06-10T12:45:12.573Z,5.55
2018-06-10T12:47:41.577Z,6.22
2018-06-10T12:50:10.258Z,6.37
2018-06-10T12:52:38.880Z,6.37
2018-06-10T12:55:07.503Z,6.20
2018-06-10T12:57:36.142Z,15.08
2018-06-10T13:00:04.805Z,8.75
2018-06-10T13:02:33.660Z,6.33
2018-06-10T13:05:02.239Z,6.92
2018-06-10T13:07:30.634Z,5.55
2018-06-10T13:09:59.056Z,5.03
2018-06-10T13:12:27.487Z,5.50
2018-06-10T13:14:56.095Z,5.50
2018-06-10T13:17:27.853Z,5.75
2018-06-10T13:19:56.251Z,6.37
2018-06-10T13:22:24.699Z,6.17
2018-06-10T13:24:53.105Z,6.17
2018-06-10T13:27:21.518Z,6.33
2018-06-10T13:29:50.044Z,5.87
2018-06-10T13:32:18.449Z,6.97
2018-06-10T13:34:46.936Z,6.17
2018-06-10T13:37:15.361Z,6.40
2018-06-10T13:39:43.761Z,6.55
2018-06-10T13:42:12.172Z,5.65
2018-06-10T13:44:40.651Z,7.00
2018-06-10T13:47:09.229Z,6.33
2018-06-10T13:49:37.666Z,5.37
2018-06-10T13:52:06.330Z,5.78
2018-06-10T13:54:34.753Z,5.25
2018-06-10T13:57:03.178Z,5.97
2018-06-10T13:59:31.605Z,5.42
2018-06-10T14:02:00.116Z,5.10
2018-06-10T14:04:28.565Z,6.17
2018-06-10T14:06:57.142Z,6.40
2018-06-10T14:09:25.691Z,6.03
2018-06-10T14:11:54.136Z,7.30
2018-06-10T14:14:22.744Z,6.05
2018-06-10T14:16:51.264Z,5.50
2018-06-10T14:19:19.717Z,5.50
2018-06-10T14:21:48.126Z,6.00
2018-06-10T14:24:16.642Z,6.55
2018-06-10T14:26:45.809Z,5.37
2018-06-10T14:29:13.975Z,6.00
2018-06-10T14:31:42.147Z,5.62
2018-06-10T14:34:10.598Z,5.47
2018-06-10T14:36:39.062Z,7.85
2018-06-10T14:39:08.808Z,5.80
2018-06-10T14:41:37.205Z,5.50
2018-06-10T14:44:05.758Z,6.12
2018-06-10T14:46:34.256Z,5.10
2018-06-10T14:49:02.726Z,5.67
2018-06-10T14:51:31.241Z,5.67
2018-06-10T14:53:59.369Z,7.00
2018-06-10T14:56:27.835Z,5.80
2018-06-10T14:58:56.288Z,5.92
2018-06-10T15:01:24.760Z,5.80
2018-06-10T15:03:52.921Z,4.62
2018-06-10T15:06:21.310Z,6.05
2018-06-10T15:08:49.743Z,5.75
2018-06-10T15:11:18.151Z,5.83
2018-06-10T15:13:50.197Z,6.05
2018-06-10T15:16:18.623Z,6.05
2018-06-10T15:18:47.099Z,7.53
2018-06-10T15:21:15.502Z,6.10
2018-06-10T15:23:43.935Z,6.97
2018-06-10T15:26:12.368Z,8.55
2018-06-10T15:28:40.771Z,7.92
2018-06-10T15:31:09.168Z,9.35
2018-06-10T15:33:37.579Z,10.78
2018-06-10T15:36:06.104Z,8.10
2018-06-10T15:38:34.621Z,8.35
2018-06-10T15:41:03.135Z,9.63
2018-06-10T15:43:31.305Z,9.28
2018-06-10T15:45:59.818Z,9.88
2018-06-10T15:48:28.587Z,7.80
2018-06-10T15:50:57.084Z,7.97
2018-06-10T15:53:25.500Z,8.33
2018-06-10T15:55:53.967Z,8.15
2018-06-10T15:58:22.384Z,6.60
2018-06-10T16:00:50.862Z,8.13
2018-06-10T16:03:19.284Z,8.25
2018-06-10T16:05:47.710Z,9.23
2018-06-10T16:08:16.200Z,8.23
2018-06-10T16:10:44.694Z,8.45
2018-06-10T16:13:13.091Z,7.20
2018-06-10T16:15:41.478Z,7.47
2018-06-10T16:18:09.986Z,9.38
2018-06-10T16:20:38.381Z,18.95
2018-06-10T16:23:06.962Z,13.28
2018-06-10T16:25:35.365Z,8.25
2018-06-10T16:28:03.769Z,9.00
2018-06-10T16:30:32.223Z,8.50
2018-06-10T16:33:00.650Z,8.78
2018-06-10T16:35:29.033Z,8.18
2018-06-10T16:37:57.462Z,8.30
2018-06-10T16:40:25.918Z,6.72
2018-06-10T16:42:54.289Z,8.73
2018-06-10T16:45:22.700Z,8.20
2018-06-10T16:47:51.122Z,8.83
2018-06-10T16:50:19.516Z,8.63
2018-06-10T16:52:47.974Z,8.73
2018-06-10T16:55:16.932Z,9.03
2018-06-10T16:57:45.368Z,9.10
2018-06-10T17:00:13.775Z,8.53
2018-06-10T17:02:42.277Z,8.30
2018-06-10T17:05:10.675Z,7.90
2018-06-10T17:07:39.094Z,9.65
2018-06-10T17:10:07.491Z,9.15
2018-06-10T17:12:35.958Z,9.30
2018-06-10T17:15:04.384Z,8.60
2018-06-10T17:17:32.749Z,8.73
2018-06-10T17:20:01.158Z,9.18
2018-06-10T17:22:29.567Z,8.38
2018-06-10T17:24:57.769Z,8.38
2018-06-10T17:27:26.152Z,9.23
2018-06-10T17:29:54.597Z,8.53
2018-06-10T17:32:22.995Z,8.50
2018-06-10T17:34:51.385Z,7.92
2018-06-10T17:37:19.837Z,8.30
2018-06-10T17:39:48.297Z,15.90
2018-06-10T17:42:16.766Z,8.40
2018-06-10T17:44:45.156Z,8.58
2018-06-10T17:47:13.532Z,7.67
2018-06-10T17:49:41.970Z,8.70
2018-06-10T17:52:10.336Z,7.25
2018-06-10T17:54:38.776Z,7.83
2018-06-10T17:57:07.141Z,7.37
2018-06-10T17:59:35.556Z,7.60
2018-06-10T18:02:04.064Z,8.38
2018-06-10T18:04:32.420Z,8.43
2018-06-10T18:07:00.780Z,8.15
2018-06-10T18:09:29.182Z,9.03
2018-06-10T18:11:57.564Z,8.75
2018-06-10T18:14:26.005Z,11.03
2018-06-10T18:16:54.440Z,9.88
2018-06-10T18:19:22.912Z,10.05
2018-06-10T18:21:51.364Z,9.50
2018-06-10T18:24:19.776Z,10.58
2018-06-10T18:26:48.172Z,9.85
2018-06-10T18:29:16.629Z,8.80
2018-06-10T18:31:45.010Z,9.53
2018-06-10T18:34:13.411Z,9.73
2018-06-10T18:36:41.804Z,8.60
2018-06-10T18:39:10.312Z,8.65
2018-06-10T18:41:38.727Z,8.55
2018-06-10T18:44:08.098Z,7.72
2018-06-10T18:46:36.459Z,9.15
2018-06-10T18:49:04.846Z,8.60
2018-06-10T18:51:33.295Z,8.45
2018-06-10T18:54:01.738Z,8.70
2018-06-10T18:56:30.176Z,7.78
2018-06-10T18:58:58.604Z,8.93
2018-06-10T19:01:26.994Z,9.63
2018-06-10T19:03:55.377Z,7.37
2018-06-10T19:06:23.850Z,8.30
2018-06-10T19:08:52.232Z,7.33
2018-06-10T19:11:20.611Z,7.75
2018-06-10T19:13:49.634Z,8.83
2018-06-10T19:16:18.053Z,7.35
2018-06-10T19:18:46.517Z,8.80
2018-06-10T19:21:14.987Z,8.28
2018-06-10T19:23:43.380Z,7.95
2018-06-10T19:26:11.835Z,8.15
2018-06-10T19:28:40.284Z,9.03
2018-06-10T19:31:08.683Z,8.60
2018-06-10T19:33:37.068Z,8.98
2018-06-10T19:36:05.648Z,8.53
2018-06-10T19:38:34.024Z,7.85
2018-06-10T19:41:02.475Z,8.90
2018-06-10T19:43:30.923Z,8.38
2018-06-10T19:45:59.409Z,8.28
2018-06-10T19:48:27.756Z,8.65
2018-06-10T19:50:56.839Z,8.20
2018-06-10T19:53:39.851Z,8.08
2018-06-10T19:56:08.276Z,8.33
2018-06-10T19:58:36.725Z,8.10
2018-06-10T20:01:05.126Z,9.43
2018-06-10T20:03:33.735Z,7.78
2018-06-10T20:06:02.165Z,9.10
2018-06-10T20:08:30.645Z,9.60
2018-06-10T20:10:59.937Z,10.00
2018-06-10T20:13:28.336Z,10.35
2018-06-10T20:15:56.747Z,8.73
2018-06-10T20:18:25.168Z,9.95
2018-06-10T20:20:53.593Z,9.05
2018-06-10T20:23:22.039Z,11.48
2018-06-10T20:25:50.549Z,9.98
2018-06-10T20:28:25.285Z,8.88
2018-06-10T20:30:53.907Z,8.98
2018-06-10T20:33:22.413Z,9.53
2018-06-10T20:35:50.821Z,8.93
2018-06-10T20:38:19.254Z,10.13
2018-06-10T20:40:47.673Z,9.78
2018-06-10T20:43:16.081Z,9.35
2018-06-10T20:45:44.467Z,8.18
2018-06-10T20:48:12.855Z,8.05
2018-06-10T20:50:41.271Z,8.40
2018-06-10T20:53:09.648Z,8.15
2018-06-10T20:55:37.775Z,6.60
2018-06-10T20:58:06.177Z,6.92
2018-06-10T21:00:34.614Z,6.37
2018-06-10T21:03:03.045Z,6.90
2018-06-10T21:05:31.448Z,6.45
2018-06-10T21:07:59.920Z,8.18
2018-06-10T21:10:28.353Z,7.28
2018-06-10T21:12:56.768Z,8.33
2018-06-10T21:15:25.194Z,10.63
2018-06-10T21:17:53.548Z,7.70
2018-06-10T21:20:22.062Z,7.30
2018-06-10T21:22:50.465Z,7.30
2018-06-10T21:25:18.974Z,12.47
2018-06-10T21:27:47.385Z,8.60
2018-06-10T21:30:15.858Z,7.08
2018-06-10T21:32:44.244Z,7.00
2018-06-10T21:35:12.650Z,6.65
2018-06-10T21:37:41.068Z,7.70
2018-06-10T21:40:09.529Z,6.75
2018-06-10T21:42:37.977Z,7.37
2018-06-10T21:45:06.437Z,8.88
2018-06-10T21:47:34.900Z,7.97
2018-06-10T21:50:03.349Z,7.10
2018-06-10T21:52:31.745Z,6.58
2018-06-10T21:55:07.285Z,6.47
2018-06-10T21:57:35.760Z,7.05
2018-06-10T22:00:05.193Z,7.67
2018-06-10T22:02:33.628Z,7.35
2018-06-10T22:05:02.054Z,7.42
2018-06-10T22:07:30.524Z,7.65
2018-06-10T22:09:58.930Z,6.67
2018-06-10T22:12:27.351Z,6.80
2018-06-10T22:14:55.790Z,6.92
2018-06-10T22:17:24.231Z,7.03
2018-06-10T22:19:53.204Z,6.60
2018-06-10T22:22:21.609Z,6.90
2018-06-10T22:24:50.103Z,6.97
2018-06-10T22:27:18.992Z,6.47
2018-06-10T22:29:47.414Z,6.80
2018-06-10T22:32:15.891Z,7.05
2018-06-10T22:34:44.299Z,7.47
2018-06-10T22:37:12.705Z,6.87
2018-06-10T22:39:41.070Z,7.12
2018-06-10T22:42:09.481Z,6.50
2018-06-10T22:44:37.871Z,7.55
2018-06-10T22:47:06.284Z,6.97
2018-06-10T22:49:34.659Z,6.97
2018-06-10T22:52:03.066Z,6.00
2018-06-10T22:54:42.296Z,5.72
2018-06-10T22:57:11.534Z,6.45
2018-06-10T22:59:39.956Z,6.50
2018-06-10T23:02:09.273Z,5.75
2018-06-10T23:04:37.724Z,6.90
2018-06-10T23:07:06.182Z,6.28
2018-06-10T23:09:34.607Z,7.22
2018-06-10T23:12:09.755Z,6.90
2018-06-10T23:14:38.149Z,7.28
2018-06-10T23:17:06.283Z,6.72
2018-06-10T23:19:35.249Z,6.65
2018-06-10T23:22:03.622Z,6.70
2018-06-10T23:24:32.026Z,6.87
2018-06-10T23:27:00.146Z,6.12
2018-06-10T23:29:28.566Z,7.30
2018-06-10T23:31:56.951Z,7.12
2018-06-10T23:34:25.109Z,6.35
2018-06-10T23:36:53.478Z,6.17
2018-06-10T23:39:21.857Z,6.35
2018-06-10T23:41:50.260Z,6.67
2018-06-10T23:44:18.668Z,6.60
2018-06-10T23:46:47.052Z,7.35
2018-06-10T23:49:15.878Z,6.10
2018-06-10T23:51:45.986Z,6.83
2018-06-10T23:54:14.412Z,5.95
2018-06-10T23:56:42.795Z,6.53
2018-06-10T23:59:11.198Z,8.00
